createdAt,value
2023-03-01T00:01:33.788Z,8.87
2023-03-01T00:04:01.441Z,8.88
2023-03-01T00:06:29.155Z,8.98
2023-03-01T00:08:56.871Z,8.97
2023-03-01T00:11:29.753Z,8.92
2023-03-01T00:13:59.840Z,9.02
2023-03-01T00:16:31.527Z,8.91
2023-03-01T00:18:59.177Z,8.90
2023-03-01T00:21:27.723Z,8.98
2023-03-01T00:23:55.524Z,8.99
2023-03-01T00:26:24.503Z,9.02
2023-03-01T00:28:52.707Z,9.08
2023-03-01T00:31:27.014Z,9.00
2023-03-01T00:33:58.926Z,8.93
2023-03-01T00:36:29.627Z,8.96
2023-03-01T00:38:57.907Z,9.04
2023-03-01T00:41:27.553Z,9.04
2023-03-01T00:43:55.635Z,9.03
2023-03-01T00:46:26.659Z,9.13
2023-03-01T00:48:54.582Z,9.03
2023-03-01T00:51:27.747Z,9.06
2023-03-01T00:54:00.101Z,9.14
2023-03-01T00:56:28.261Z,9.11
2023-03-01T00:58:56.411Z,9.05
2023-03-01T01:01:28.327Z,9.24
2023-03-01T01:03:58.822Z,9.21
2023-03-01T01:06:31.921Z,9.22
2023-03-01T01:09:00.204Z,9.42
2023-03-01T01:11:29.458Z,9.20
2023-03-01T01:13:57.845Z,9.07
2023-03-01T01:16:27.281Z,9.06
2023-03-01T01:18:54.692Z,9.01
2023-03-01T01:21:23.980Z,8.84
2023-03-01T01:23:52.003Z,8.96
2023-03-01T01:26:28.253Z,9.03
2023-03-01T01:28:56.418Z,8.87
2023-03-01T01:31:25.683Z,9.07
2023-03-01T01:33:54.003Z,8.95
2023-03-01T01:36:21.970Z,8.97
2023-03-01T01:38:49.714Z,8.99
2023-03-01T01:41:17.994Z,9.00
2023-03-01T01:44:06.980Z,8.97
2023-03-01T01:46:36.736Z,8.93
2023-03-01T01:49:07.111Z,8.99
2023-03-01T01:51:39.538Z,8.92
2023-03-01T01:54:20.052Z,9.18
2023-03-01T01:56:56.482Z,8.93
2023-03-01T01:59:25.606Z,8.99
2023-03-01T02:01:53.912Z,9.06
2023-03-01T02:04:22.032Z,8.85
2023-03-01T02:06:55.286Z,9.01
2023-03-01T02:09:24.534Z,8.99
2023-03-01T02:11:53.130Z,8.91
2023-03-01T02:14:20.617Z,8.89
2023-03-01T02:16:48.652Z,8.93
2023-03-01T02:19:55.345Z,8.89
2023-03-01T02:22:29.257Z,8.73
2023-03-01T02:25:21.163Z,8.69
2023-03-01T02:28:01.932Z,8.82
2023-03-01T02:30:30.468Z,8.84
2023-03-01T02:33:05.428Z,8.80
2023-03-01T02:35:36.392Z,8.84
2023-03-01T02:38:05.116Z,8.90
2023-03-01T02:40:34.666Z,8.85
2023-03-01T02:43:05.448Z,8.77
2023-03-01T02:45:33.121Z,8.78
2023-03-01T02:48:00.662Z,8.72
2023-03-01T02:50:31.222Z,8.54
2023-03-01T02:53:05.839Z,8.80
2023-03-01T02:55:33.525Z,8.64
2023-03-01T02:58:03.241Z,8.73
2023-03-01T03:00:40.584Z,8.73
2023-03-01T03:03:08.922Z,8.92
2023-03-01T03:05:36.319Z,8.76
2023-03-01T03:08:04.188Z,8.85
2023-03-01T03:10:34.571Z,8.85
2023-03-01T03:13:09.577Z,8.79
2023-03-01T03:15:39.367Z,8.70
2023-03-01T03:18:10.378Z,8.77
2023-03-01T03:20:40.794Z,8.80
2023-03-01T03:23:08.280Z,8.87
2023-03-01T03:25:38.663Z,8.82
2023-03-01T03:28:10.501Z,8.76
2023-03-01T03:30:40.711Z,8.79
2023-03-01T03:33:11.211Z,8.82
2023-03-01T03:35:43.034Z,8.92
2023-03-01T03:38:16.660Z,8.77
2023-03-01T03:40:49.701Z,8.81
2023-03-01T03:43:19.917Z,8.69
2023-03-01T03:45:48.870Z,8.92
2023-03-01T03:48:16.836Z,8.83
2023-03-01T03:50:50.274Z,8.72
2023-03-01T03:53:18.023Z,9.00
2023-03-01T03:55:45.801Z,8.79
2023-03-01T03:58:13.177Z,8.85
2023-03-01T04:00:45.278Z,8.83
2023-03-01T04:03:14.548Z,8.81
2023-03-01T04:05:42.579Z,8.78
2023-03-01T04:08:10.449Z,8.97
2023-03-01T04:10:44.603Z,8.74
2023-03-01T04:13:14.073Z,8.69
2023-03-01T04:15:43.948Z,8.76
2023-03-01T04:18:15.775Z,8.90
2023-03-01T04:20:44.233Z,8.91
2023-03-01T04:23:21.564Z,8.70
2023-03-01T04:25:54.925Z,8.60
2023-03-01T04:28:27.831Z,8.75
2023-03-01T04:30:56.790Z,8.74
2023-03-01T04:33:25.090Z,8.52
2023-03-01T04:35:52.805Z,8.55
2023-03-01T04:38:22.109Z,8.45
2023-03-01T04:40:49.642Z,8.42
2023-03-01T04:43:17.540Z,8.63
2023-03-01T04:45:45.290Z,8.36
2023-03-01T04:48:12.685Z,8.37
2023-03-01T04:50:40.068Z,8.59
2023-03-01T04:53:07.728Z,8.46
2023-03-01T04:55:35.256Z,8.36
2023-03-01T04:58:02.671Z,8.19
2023-03-01T05:00:30.409Z,8.32
2023-03-01T05:03:00.724Z,8.43
2023-03-01T05:05:39.222Z,8.58
2023-03-01T05:08:08.824Z,8.45
2023-03-01T05:10:37.262Z,8.59
2023-03-01T05:13:05.101Z,8.60
2023-03-01T05:15:33.536Z,8.64
2023-03-01T05:18:01.402Z,8.90
2023-03-01T05:20:30.251Z,8.70
2023-03-01T05:23:00.037Z,8.65
2023-03-01T05:25:28.174Z,8.71
2023-03-01T05:27:55.584Z,8.93
2023-03-01T05:30:23.575Z,8.72
2023-03-01T05:32:56.690Z,9.01
2023-03-01T05:35:24.974Z,8.93
2023-03-01T05:37:52.671Z,8.80
2023-03-01T05:40:22.029Z,8.80
2023-03-01T05:42:53.233Z,8.86
2023-03-01T05:45:20.821Z,8.76
2023-03-01T05:47:49.411Z,8.66
2023-03-01T05:50:26.181Z,8.77
2023-03-01T05:53:02.024Z,8.68
2023-03-01T05:55:31.967Z,8.46
2023-03-01T05:58:00.947Z,8.63
2023-03-01T06:00:29.952Z,8.64
2023-03-01T06:02:59.049Z,8.59
2023-03-01T06:05:27.153Z,8.68
2023-03-01T06:07:54.810Z,8.69
2023-03-01T06:10:23.359Z,8.50
2023-03-01T06:12:50.704Z,8.60
2023-03-01T06:15:18.515Z,8.50
2023-03-01T06:17:46.926Z,8.56
2023-03-01T06:20:18.697Z,8.56
2023-03-01T06:22:47.555Z,8.64
2023-03-01T06:25:17.502Z,8.53
2023-03-01T06:27:45.197Z,8.52
2023-03-01T06:30:15.680Z,8.63
2023-03-01T06:32:43.400Z,8.75
2023-03-01T06:35:12.212Z,8.75
2023-03-01T06:37:40.514Z,8.88
2023-03-01T06:40:09.121Z,8.94
2023-03-01T06:42:36.941Z,9.02
2023-03-01T06:45:06.313Z,8.97
2023-03-01T06:47:34.309Z,8.92
2023-03-01T06:50:02.765Z,9.02
2023-03-01T06:52:30.602Z,9.00
2023-03-01T06:54:57.978Z,9.16
2023-03-01T06:57:25.645Z,9.10
2023-03-01T06:59:53.404Z,9.00
2023-03-01T07:02:20.790Z,9.02
2023-03-01T07:04:50.290Z,8.98
2023-03-01T07:07:19.001Z,8.94
2023-03-01T07:09:47.117Z,8.78
2023-03-01T07:12:14.520Z,8.80
2023-03-01T07:14:42.610Z,8.85
2023-03-01T07:17:10.130Z,9.01
2023-03-01T07:19:37.771Z,9.40
2023-03-01T07:22:05.445Z,9.41
2023-03-01T07:24:32.853Z,9.50
2023-03-01T07:27:00.335Z,9.38
2023-03-01T07:29:29.687Z,9.03
2023-03-01T07:31:57.173Z,8.83
2023-03-01T07:34:24.651Z,9.01
2023-03-01T07:36:52.314Z,9.15
2023-03-01T07:39:19.884Z,9.22
2023-03-01T07:41:47.319Z,8.94
2023-03-01T07:44:15.918Z,9.07
2023-03-01T07:46:43.278Z,9.04
2023-03-01T07:49:11.169Z,9.18
2023-03-01T07:51:39.119Z,9.37
2023-03-01T07:54:06.541Z,9.39
2023-03-01T07:56:34.158Z,9.42
2023-03-01T07:59:02.027Z,9.61
2023-03-01T08:01:29.460Z,9.60
2023-03-01T08:03:57.147Z,9.55
2023-03-01T08:06:24.504Z,9.62
2023-03-01T08:08:51.946Z,9.66
2023-03-01T08:11:19.604Z,9.39
2023-03-01T08:13:51.380Z,9.52
2023-03-01T08:16:20.252Z,9.47
2023-03-01T08:18:47.916Z,9.54
2023-03-01T08:21:18.405Z,9.43
2023-03-01T08:23:46.256Z,9.35
2023-03-01T08:26:19.646Z,9.49
2023-03-01T08:28:48.242Z,9.69
2023-03-01T08:31:22.753Z,9.84
2023-03-01T08:33:56.060Z,10.02
2023-03-01T08:36:25.048Z,9.87
2023-03-01T08:38:53.061Z,9.91
2023-03-01T08:41:20.700Z,10.05
2023-03-01T08:43:48.111Z,10.04
2023-03-01T08:46:15.976Z,10.18
2023-03-01T08:48:44.170Z,10.51
2023-03-01T08:51:17.193Z,10.49
2023-03-01T08:53:45.632Z,10.49
2023-03-01T08:56:13.413Z,10.50
2023-03-01T08:58:41.015Z,10.62
2023-03-01T09:01:10.264Z,10.74
2023-03-01T09:03:38.155Z,10.85
2023-03-01T09:06:08.349Z,11.01
2023-03-01T09:08:40.327Z,11.19
2023-03-01T09:11:09.088Z,11.27
2023-03-01T09:13:36.997Z,11.34
2023-03-01T09:16:06.635Z,11.29
2023-03-01T09:18:34.850Z,11.33
2023-03-01T09:21:10.951Z,11.18
2023-03-01T09:23:41.836Z,11.12
2023-03-01T09:26:11.670Z,11.33
2023-03-01T09:28:39.445Z,11.23
2023-03-01T09:31:06.877Z,11.21
2023-03-01T09:33:34.668Z,11.37
2023-03-01T09:36:04.498Z,11.49
2023-03-01T09:38:32.539Z,11.61
2023-03-01T09:41:01.652Z,11.63
2023-03-01T09:43:48.357Z,11.40
2023-03-01T09:46:19.939Z,11.46
2023-03-01T09:48:54.484Z,11.41
2023-03-01T09:51:28.501Z,11.38
2023-03-01T09:53:57.971Z,11.39
2023-03-01T09:56:35.314Z,11.48
2023-03-01T09:59:14.878Z,11.79
2023-03-01T10:01:49.715Z,11.80
2023-03-01T10:04:42.599Z,11.93
2023-03-01T10:07:30.461Z,12.07
2023-03-01T10:09:58.431Z,12.09
2023-03-01T10:12:29.010Z,12.16
2023-03-01T10:15:12.994Z,12.41
2023-03-01T10:17:46.391Z,12.43
2023-03-01T10:20:14.021Z,12.14
2023-03-01T10:22:41.746Z,12.23
2023-03-01T10:25:15.076Z,12.35
2023-03-01T10:28:01.059Z,12.37
2023-03-01T10:30:36.001Z,11.93
2023-03-01T10:33:04.845Z,11.98
2023-03-01T10:35:34.369Z,12.07
2023-03-01T10:38:10.219Z,12.32
2023-03-01T10:40:57.953Z,12.30
2023-03-01T10:43:27.613Z,12.48
2023-03-01T10:45:55.485Z,12.41
2023-03-01T10:48:27.898Z,12.31
2023-03-01T10:50:58.498Z,12.65
2023-03-01T10:53:39.204Z,12.56
2023-03-01T10:56:12.998Z,12.52
2023-03-01T10:58:58.324Z,12.42
2023-03-01T11:01:36.359Z,12.59
2023-03-01T11:04:12.545Z,12.74
2023-03-01T11:06:44.356Z,12.87
2023-03-01T11:09:19.038Z,13.00
2023-03-01T11:11:47.418Z,12.61
2023-03-01T11:14:26.791Z,12.72
2023-03-01T11:17:22.730Z,12.67
2023-03-01T11:20:11.208Z,12.95
2023-03-01T11:22:46.768Z,13.23
2023-03-01T11:25:15.576Z,13.18
2023-03-01T11:27:46.642Z,13.11
2023-03-01T11:30:18.386Z,13.16
2023-03-01T11:33:07.024Z,13.51
2023-03-01T11:35:38.612Z,13.09
2023-03-01T11:38:16.852Z,13.28
2023-03-01T11:40:47.284Z,13.27
2023-03-01T11:43:38.194Z,13.31
2023-03-01T11:46:24.392Z,13.20
2023-03-01T11:49:11.400Z,13.26
2023-03-01T11:52:00.787Z,13.35
2023-03-01T11:54:37.224Z,13.30
2023-03-01T11:57:34.211Z,13.60
2023-03-01T12:00:22.439Z,13.17
2023-03-01T12:03:18.915Z,13.10
2023-03-01T12:05:52.135Z,13.33
2023-03-01T12:08:31.912Z,13.63
2023-03-01T12:11:24.020Z,13.66
2023-03-01T12:14:03.546Z,13.58
2023-03-01T12:16:51.642Z,13.30
2023-03-01T12:19:22.013Z,13.13
2023-03-01T12:22:10.924Z,13.32
2023-03-01T12:24:50.442Z,13.42
2023-03-01T12:27:25.142Z,13.41
2023-03-01T12:30:27.053Z,13.43
2023-03-01T12:33:07.512Z,13.64
2023-03-01T12:35:55.894Z,13.68
2023-03-01T12:38:29.542Z,13.81
2023-03-01T12:41:21.496Z,14.07
2023-03-01T12:43:55.736Z,14.03
2023-03-01T12:46:48.500Z,13.89
2023-03-01T12:49:20.194Z,14.19
2023-03-01T12:52:01.590Z,14.09
2023-03-01T12:54:34.556Z,14.03
2023-03-01T12:57:24.245Z,14.17
2023-03-01T13:00:11.078Z,14.41
2023-03-01T13:02:48.281Z,14.52
2023-03-01T13:05:22.041Z,14.36
2023-03-01T13:08:24.830Z,14.50
2023-03-01T13:11:03.194Z,14.54
2023-03-01T13:13:31.176Z,14.70
2023-03-01T13:15:59.015Z,14.73
2023-03-01T13:18:28.268Z,14.56
2023-03-01T13:21:00.452Z,14.61
2023-03-01T13:23:31.753Z,14.60
2023-03-01T13:26:05.437Z,14.57
2023-03-01T13:28:42.852Z,14.32
2023-03-01T13:31:12.448Z,14.41
2023-03-01T13:33:47.494Z,14.51
2023-03-01T13:36:37.007Z,14.55
2023-03-01T13:39:06.438Z,14.19
2023-03-01T13:41:40.065Z,14.39
2023-03-01T13:44:37.188Z,14.35
2023-03-01T13:47:07.733Z,14.14
2023-03-01T13:49:47.859Z,14.11
2023-03-01T13:52:31.553Z,14.07
2023-03-01T13:54:59.521Z,13.98
2023-03-01T13:57:31.521Z,14.17
2023-03-01T13:59:59.204Z,14.09
2023-03-01T14:02:26.695Z,14.24
2023-03-01T14:05:01.379Z,13.92
2023-03-01T14:07:32.138Z,13.91
2023-03-01T14:10:03.212Z,13.91
2023-03-01T14:12:30.573Z,13.97
2023-03-01T14:15:06.148Z,14.11
2023-03-01T14:18:05.133Z,13.80
2023-03-01T14:20:41.386Z,13.58
2023-03-01T14:23:30.518Z,13.62
2023-03-01T14:25:58.766Z,13.66
2023-03-01T14:28:34.361Z,13.86
2023-03-01T14:31:02.690Z,13.74
2023-03-01T14:33:37.054Z,13.75
2023-03-01T14:36:04.646Z,13.73
2023-03-01T14:38:37.697Z,13.93
2023-03-01T14:41:09.099Z,13.98
2023-03-01T14:43:38.827Z,13.87
2023-03-01T14:46:06.267Z,13.82
2023-03-01T14:48:33.725Z,13.95
2023-03-01T14:51:01.684Z,13.62
2023-03-01T14:53:34.134Z,13.68
2023-03-01T14:56:05.528Z,13.93
2023-03-01T14:58:34.350Z,13.75
2023-03-01T15:01:04.237Z,13.76
2023-03-01T15:03:38.088Z,13.58
2023-03-01T15:06:07.089Z,13.71
2023-03-01T15:08:35.316Z,13.82
2023-03-01T15:11:07.309Z,13.78
2023-03-01T15:13:36.753Z,13.96
2023-03-01T15:16:14.036Z,13.88
2023-03-01T15:18:54.418Z,13.80
2023-03-01T15:21:26.409Z,14.05
2023-03-01T15:23:57.226Z,13.81
2023-03-01T15:26:28.084Z,13.79
2023-03-01T15:28:59.138Z,13.79
2023-03-01T15:31:27.748Z,13.83
2023-03-01T15:34:20.380Z,13.79
2023-03-01T15:36:51.302Z,13.85
2023-03-01T15:39:47.760Z,13.79
2023-03-01T15:42:44.783Z,13.91
2023-03-01T15:45:22.459Z,14.01
2023-03-01T15:47:58.726Z,13.95
2023-03-01T15:50:33.886Z,13.91
2023-03-01T15:53:11.977Z,13.79
2023-03-01T15:55:39.362Z,13.80
2023-03-01T15:58:11.669Z,13.86
2023-03-01T16:00:46.280Z,13.70
2023-03-01T16:03:26.073Z,13.69
2023-03-01T16:05:53.441Z,13.73
2023-03-01T16:08:20.906Z,13.73
2023-03-01T16:10:50.936Z,13.88
2023-03-01T16:13:18.619Z,13.87
2023-03-01T16:15:46.046Z,13.84
2023-03-01T16:18:13.706Z,13.80
2023-03-01T16:20:41.218Z,13.78
2023-03-01T16:23:09.430Z,13.59
2023-03-01T16:25:37.291Z,13.46
2023-03-01T16:28:09.900Z,13.39
2023-03-01T16:30:40.337Z,13.41
2023-03-01T16:33:24.382Z,13.37
2023-03-01T16:35:55.570Z,13.34
2023-03-01T16:38:22.975Z,13.22
2023-03-01T16:40:51.934Z,13.08
2023-03-01T16:43:19.680Z,12.98
2023-03-01T16:45:47.430Z,12.84
2023-03-01T16:48:15.376Z,12.86
2023-03-01T16:50:43.169Z,12.73
2023-03-01T16:53:10.668Z,12.55
2023-03-01T16:55:38.914Z,12.44
2023-03-01T16:58:06.691Z,12.23
2023-03-01T17:00:34.111Z,12.20
2023-03-01T17:03:01.789Z,12.23
2023-03-01T17:05:29.519Z,11.94
2023-03-01T17:07:58.025Z,11.97
2023-03-01T17:10:25.563Z,11.85
2023-03-01T17:12:53.284Z,11.83
2023-03-01T17:15:20.702Z,11.61
2023-03-01T17:17:51.737Z,11.70
2023-03-01T17:20:20.080Z,11.57
2023-03-01T17:22:47.447Z,11.46
2023-03-01T17:25:15.811Z,11.44
2023-03-01T17:27:43.617Z,11.30
2023-03-01T17:30:13.101Z,11.25
2023-03-01T17:32:41.034Z,11.30
2023-03-01T17:35:11.599Z,11.14
2023-03-01T17:37:39.803Z,11.02
2023-03-01T17:40:07.734Z,10.93
2023-03-01T17:42:35.377Z,10.94
2023-03-01T17:45:02.896Z,10.85
2023-03-01T17:47:30.393Z,10.73
2023-03-01T17:49:58.056Z,10.75
2023-03-01T17:52:25.403Z,10.60
2023-03-01T17:54:52.799Z,10.63
2023-03-01T17:57:20.472Z,10.54
2023-03-01T17:59:47.863Z,10.53
2023-03-01T18:02:15.259Z,10.48
2023-03-01T18:04:42.961Z,10.29
2023-03-01T18:07:10.324Z,10.26
2023-03-01T18:09:37.879Z,10.18
2023-03-01T18:12:05.913Z,10.20
2023-03-01T18:14:34.149Z,10.15
2023-03-01T18:17:06.577Z,10.13
2023-03-01T18:19:34.317Z,10.07
2023-03-01T18:22:01.735Z,10.04
2023-03-01T18:24:29.165Z,10.00
2023-03-01T18:26:56.847Z,9.88
2023-03-01T18:29:24.247Z,9.92
2023-03-01T18:31:51.614Z,9.88
2023-03-01T18:34:19.226Z,9.83
2023-03-01T18:37:00.453Z,9.70
2023-03-01T18:39:34.071Z,9.54
2023-03-01T18:42:01.488Z,9.59
2023-03-01T18:44:28.870Z,9.49
2023-03-01T18:46:58.271Z,9.45
2023-03-01T18:49:26.354Z,9.43
2023-03-01T18:51:54.022Z,9.50
2023-03-01T18:54:21.683Z,9.28
2023-03-01T18:56:49.124Z,9.28
2023-03-01T18:59:16.587Z,9.37
2023-03-01T19:01:44.313Z,9.31
2023-03-01T19:04:11.817Z,9.05
2023-03-01T19:06:39.397Z,9.10
2023-03-01T19:09:08.269Z,8.95
2023-03-01T19:11:35.951Z,8.91
2023-03-01T19:14:04.056Z,8.75
2023-03-01T19:16:33.483Z,8.91
2023-03-01T19:19:02.340Z,8.97
2023-03-01T19:21:31.555Z,8.85
2023-03-01T19:24:02.298Z,8.78
2023-03-01T19:26:31.001Z,8.76
2023-03-01T19:28:59.373Z,8.77
2023-03-01T19:31:28.712Z,8.65
2023-03-01T19:34:10.002Z,8.64
2023-03-01T19:36:41.732Z,8.73
2023-03-01T19:39:09.954Z,8.69
2023-03-01T19:41:37.633Z,8.66
2023-03-01T19:44:05.988Z,8.69
2023-03-01T19:46:34.162Z,8.58
2023-03-01T19:49:03.494Z,8.62
2023-03-01T19:51:36.502Z,8.49
2023-03-01T19:54:05.857Z,8.36
2023-03-01T19:56:34.202Z,8.44
2023-03-01T19:59:04.262Z,8.36
2023-03-01T20:01:34.315Z,8.20
2023-03-01T20:04:03.100Z,8.24
2023-03-01T20:06:31.065Z,8.12
2023-03-01T20:09:00.648Z,8.22
2023-03-01T20:11:29.995Z,8.10
2023-03-01T20:13:57.760Z,8.02
2023-03-01T20:16:26.785Z,8.10
2023-03-01T20:18:54.563Z,8.08
2023-03-01T20:21:24.431Z,8.01
2023-03-01T20:23:52.474Z,7.99
2023-03-01T20:26:21.367Z,7.97
2023-03-01T20:28:50.759Z,7.86
2023-03-01T20:31:19.808Z,7.98
2023-03-01T20:33:48.370Z,8.01
2023-03-01T20:36:16.110Z,7.93
2023-03-01T20:38:43.521Z,7.82
2023-03-01T20:41:12.850Z,7.77
2023-03-01T20:43:43.462Z,7.77
2023-03-01T20:46:13.301Z,7.67
2023-03-01T20:48:44.950Z,7.71
2023-03-01T20:51:13.507Z,7.67
2023-03-01T20:53:41.215Z,7.59
2023-03-01T20:56:11.321Z,7.59
2023-03-01T20:58:39.330Z,7.46
2023-03-01T21:01:07.779Z,7.48
2023-03-01T21:03:35.884Z,7.48
2023-03-01T21:06:06.173Z,7.39
2023-03-01T21:08:35.220Z,7.39
2023-03-01T21:11:05.712Z,7.32
2023-03-01T21:13:34.677Z,7.12
2023-03-01T21:16:07.944Z,7.24
2023-03-01T21:18:36.966Z,7.17
2023-03-01T21:21:13.209Z,7.19
2023-03-01T21:23:41.817Z,7.07
2023-03-01T21:26:23.642Z,7.13
2023-03-01T21:28:55.058Z,7.28
2023-03-01T21:31:25.175Z,7.18
2023-03-01T21:33:55.189Z,6.96
2023-03-01T21:36:24.453Z,6.96
2023-03-01T21:38:52.656Z,6.90
2023-03-01T21:41:25.560Z,7.12
2023-03-01T21:43:54.458Z,7.08
2023-03-01T21:46:23.671Z,7.14
2023-03-01T21:48:52.436Z,7.02
2023-03-01T21:51:21.254Z,6.90
2023-03-01T21:53:50.526Z,7.00
2023-03-01T21:56:23.981Z,6.90
2023-03-01T21:58:51.884Z,6.99
2023-03-01T22:01:24.548Z,6.95
2023-03-01T22:03:52.431Z,6.86
2023-03-01T22:06:34.329Z,7.03
2023-03-01T22:09:05.985Z,7.04
2023-03-01T22:11:37.058Z,6.85
2023-03-01T22:14:05.435Z,6.58
2023-03-01T22:16:35.643Z,6.72
2023-03-01T22:19:04.901Z,6.72
2023-03-01T22:21:33.209Z,6.76
2023-03-01T22:24:01.518Z,6.69
2023-03-01T22:26:30.761Z,6.63
2023-03-01T22:29:01.226Z,6.55
2023-03-01T22:31:29.027Z,6.55
2023-03-01T22:33:56.994Z,6.52
2023-03-01T22:36:24.656Z,6.53
2023-03-01T22:39:00.089Z,6.47
2023-03-01T22:41:43.063Z,6.40
2023-03-01T22:44:15.046Z,6.34
2023-03-01T22:46:43.555Z,6.34
2023-03-01T22:49:10.995Z,6.30
2023-03-01T22:51:40.861Z,6.29
2023-03-01T22:54:09.688Z,6.21
2023-03-01T22:56:37.953Z,6.30
2023-03-01T22:59:11.303Z,6.20
2023-03-01T23:01:41.000Z,5.96
2023-03-01T23:04:08.422Z,5.96
2023-03-01T23:06:50.043Z,6.10
2023-03-01T23:09:20.649Z,5.83
2023-03-01T23:11:48.331Z,5.98
2023-03-01T23:14:16.166Z,5.93
2023-03-01T23:16:44.207Z,5.87
2023-03-01T23:19:11.778Z,5.78
2023-03-01T23:21:44.217Z,5.86
2023-03-01T23:24:13.607Z,5.73
2023-03-01T23:26:41.771Z,5.71
2023-03-01T23:29:09.245Z,5.67
2023-03-01T23:31:36.921Z,5.67
2023-03-01T23:34:04.476Z,5.65
2023-03-01T23:36:34.025Z,5.64
2023-03-01T23:39:06.207Z,5.62
2023-03-01T23:41:35.664Z,5.65
2023-03-01T23:44:04.200Z,5.58
2023-03-01T23:46:35.002Z,5.64
2023-03-01T23:49:03.491Z,5.50
2023-03-01T23:51:30.892Z,5.41
2023-03-01T23:54:01.589Z,5.42
2023-03-01T23:56:32.227Z,5.50
2023-03-01T23:59:01.755Z,5.43
